Time;durP1;ratioP1;P1;durP2;ratioP2;P2;SDS_P1;SDS_P2;PMS_P1;PMS_P2;Temp;Humidity;BMP_temperature;BMP_pressure;BME280_temperature;BME280_humidity;BME280_pressure;Samples;Min_cycle;Max_cycle;Signal;HPM_P1;HPM_P2
2023/08/21 00:00:12;;;;;;;21.27;14.13;;;18.80;99.90;;;;;;4449296;28;660666;-68
2023/08/21 00:03:00;;;;;;;21.20;14.80;;;18.60;99.90;;;;;;4430231;28;660381;-68
2023/08/21 00:05:47;;;;;;;23.37;15.63;;;18.60;99.90;;;;;;4455672;28;660145;-68
2023/08/21 00:08:35;;;;;;;25.27;15.87;;;18.60;99.90;;;;;;4464489;27;660357;-67
2023/08/21 00:11:23;;;;;;;23.17;15.60;;;18.60;99.90;;;;;;4457972;27;659529;-68
2023/08/21 00:14:10;;;;;;;22.97;15.70;;;18.70;99.90;;;;;;4437385;27;661255;-68
2023/08/21 00:16:58;;;;;;;22.97;15.63;;;18.70;99.90;;;;;;4439987;27;659971;-68
2023/08/21 00:19:45;;;;;;;22.53;15.73;;;18.70;99.90;;;;;;4455008;27;661681;-69
2023/08/21 00:22:32;;;;;;;22.47;15.27;;;18.70;99.90;;;;;;4454819;27;659849;-68
2023/08/21 00:25:20;;;;;;;24.23;16.63;;;18.70;99.90;;;;;;4459352;27;660151;-68
2023/08/21 00:28:08;;;;;;;22.80;16.00;;;18.70;99.90;;;;;;4456673;27;659882;-68
2023/08/21 00:31:01;;;;;;;26.30;15.87;;;18.60;99.90;;;;;;4431571;27;660294;-69
2023/08/21 00:33:49;;;;;;;21.83;15.77;;;18.60;99.90;;;;;;4407154;27;660559;-68
2023/08/21 00:36:36;;;;;;;20.77;16.13;;;18.60;99.90;;;;;;4456718;27;660629;-68
2023/08/21 00:39:23;;;;;;;21.97;16.27;;;18.60;99.90;;;;;;4412393;28;659710;-68
2023/08/21 00:42:10;;;;;;;23.00;17.10;;;18.60;99.90;;;;;;4451507;27;660100;-68
2023/08/21 00:44:59;;;;;;;25.47;16.77;;;18.60;99.90;;;;;;4437284;28;660762;-69
2023/08/21 00:47:46;;;;;;;22.20;15.67;;;18.60;99.90;;;;;;4463173;27;659713;-68
2023/08/21 00:50:33;;;;;;;21.00;16.30;;;18.50;99.90;;;;;;4443620;27;659922;-68
2023/08/21 00:53:20;;;;;;;24.53;16.47;;;18.50;99.90;;;;;;4440433;28;661484;-68
2023/08/21 00:56:08;;;;;;;22.60;16.20;;;18.50;99.90;;;;;;4431928;28;659299;-68
2023/08/21 00:58:56;;;;;;;25.33;16.37;;;18.40;99.90;;;;;;4456797;27;660337;-68
2023/08/21 01:01:44;;;;;;;24.00;16.57;;;18.40;99.90;;;;;;4425907;27;659809;-68
2023/08/21 01:04:32;;;;;;;24.23;17.13;;;18.40;99.90;;;;;;4454985;27;659890;-68
2023/08/21 01:07:19;;;;;;;20.97;16.47;;;18.40;99.90;;;;;;4438852;27;659758;-69
2023/08/21 01:10:09;;;;;;;24.97;16.93;;;18.40;99.90;;;;;;4461887;27;659003;-67
2023/08/21 01:12:59;;;;;;;25.27;17.40;;;18.30;99.90;;;;;;4433574;27;660316;-69
2023/08/21 01:15:46;;;;;;;24.13;16.80;;;18.40;99.90;;;;;;4431618;27;660415;-68
2023/08/21 01:18:35;;;;;;;24.27;17.27;;;18.40;99.90;;;;;;4429519;27;660103;-68
2023/08/21 01:21:22;;;;;;;23.80;16.83;;;18.40;99.90;;;;;;4446476;27;659720;-69
2023/08/21 01:24:11;;;;;;;26.00;17.27;;;18.30;99.90;;;;;;4454359;27;660659;-68
2023/08/21 01:26:58;;;;;;;23.10;17.03;;;18.30;99.90;;;;;;4440658;27;659578;-68
2023/08/21 01:29:45;;;;;;;19.70;15.73;;;18.30;99.90;;;;;;4456704;27;661351;-68
2023/08/21 01:32:36;;;;;;;22.40;16.60;;;18.30;99.90;;;;;;4431446;27;659944;-68
2023/08/21 01:35:24;;;;;;;22.73;17.03;;;18.30;99.90;;;;;;4432244;27;660124;-68
2023/08/21 01:38:11;;;;;;;24.20;16.80;;;18.20;99.90;;;;;;4452691;27;660313;-68
2023/08/21 01:41:00;;;;;;;23.67;16.67;;;18.20;99.90;;;;;;4433680;27;659569;-68
2023/08/21 01:43:47;;;;;;;24.33;16.10;;;18.20;99.90;;;;;;4455111;27;659489;-69
2023/08/21 01:46:34;;;;;;;23.53;15.73;;;18.10;99.90;;;;;;4436588;27;660922;-68
2023/08/21 01:49:21;;;;;;;24.53;16.20;;;18.10;99.90;;;;;;4451955;27;659870;-68
2023/08/21 01:52:08;;;;;;;23.77;16.08;;;18.20;99.90;;;;;;4436190;27;660581;-68
2023/08/21 01:54:56;;;;;;;20.23;15.40;;;18.10;99.90;;;;;;4448688;27;660502;-68
2023/08/21 01:57:44;;;;;;;23.77;15.97;;;18.20;99.90;;;;;;4438628;27;659417;-68
2023/08/21 02:00:31;;;;;;;24.53;17.23;;;18.20;99.90;;;;;;4450470;27;659724;-68
2023/08/21 02:03:19;;;;;;;30.40;17.13;;;18.20;99.90;;;;;;4430968;27;659744;-68
2023/08/21 02:06:06;;;;;;;30.27;16.80;;;18.30;99.90;;;;;;4449959;27;659904;-68
2023/08/21 02:08:53;;;;;;;28.90;16.60;;;18.20;99.90;;;;;;4433344;27;659831;-68
2023/08/21 02:11:40;;;;;;;28.13;16.63;;;18.20;99.90;;;;;;4452154;28;660926;-68
2023/08/21 02:14:29;;;;;;;25.00;17.10;;;18.20;99.90;;;;;;4434036;27;660012;-68
2023/08/21 02:17:16;;;;;;;25.97;16.93;;;18.20;99.90;;;;;;4454425;27;659966;-68
2023/08/21 02:20:04;;;;;;;24.37;16.83;;;18.30;99.90;;;;;;4430979;27;659926;-68
2023/08/21 02:22:51;;;;;;;24.20;17.10;;;18.30;99.90;;;;;;4448844;27;660518;-68
2023/08/21 02:25:38;;;;;;;24.40;15.50;;;18.30;99.90;;;;;;4426948;27;660440;-68
2023/08/21 02:28:25;;;;;;;22.63;16.50;;;18.20;99.90;;;;;;4456167;28;661364;-68
2023/08/21 02:31:14;;;;;;;21.97;15.97;;;18.20;99.90;;;;;;4431030;27;659412;-68
2023/08/21 02:34:01;;;;;;;24.02;16.63;;;18.20;99.90;;;;;;4441399;28;659857;-68
2023/08/21 02:36:48;;;;;;;22.83;16.73;;;18.20;99.90;;;;;;4432999;28;660270;-68
2023/08/21 02:39:36;;;;;;;23.07;15.60;;;18.10;99.90;;;;;;4455121;28;660699;-68
2023/08/21 02:42:23;;;;;;;21.83;16.37;;;18.10;99.90;;;;;;4433352;28;659558;-68
2023/08/21 02:45:11;;;;;;;24.33;16.50;;;18.10;99.90;;;;;;4449165;27;662025;-68
2023/08/21 02:47:59;;;;;;;23.50;16.90;;;18.10;99.90;;;;;;4440772;27;660713;-69
2023/08/21 02:50:47;;;;;;;22.17;17.00;;;18.10;99.90;;;;;;4457650;27;659955;-69
2023/08/21 02:53:34;;;;;;;21.63;16.50;;;18.00;99.90;;;;;;4434105;27;660028;-68
2023/08/21 02:56:21;;;;;;;25.97;16.43;;;18.10;99.90;;;;;;4451493;27;660458;-68
2023/08/21 02:59:08;;;;;;;24.47;16.73;;;18.10;99.90;;;;;;4435943;27;659767;-68
2023/08/21 03:01:55;;;;;;;23.83;16.93;;;18.00;99.90;;;;;;4457586;28;660109;-68
2023/08/21 03:04:44;;;;;;;24.03;17.20;;;18.00;99.90;;;;;;4431448;28;660622;-68
2023/08/21 03:07:31;;;;;;;25.50;17.70;;;18.10;99.90;;;;;;4454501;28;659834;-69
2023/08/21 03:10:19;;;;;;;27.23;17.73;;;18.00;99.90;;;;;;4432283;27;659906;-68
2023/08/21 03:13:06;;;;;;;24.67;17.30;;;18.00;99.90;;;;;;4456006;28;660182;-69
2023/08/21 03:15:53;;;;;;;24.93;16.73;;;18.00;99.90;;;;;;4429111;28;659644;-68
2023/08/21 03:18:55;;;;;;;23.83;16.20;;;17.90;99.90;;;;;;4459893;27;661030;-68
2023/08/21 03:21:44;;;;;;;26.20;16.47;;;17.90;99.90;;;;;;4430085;27;659421;-68
2023/08/21 03:24:31;;;;;;;23.43;15.70;;;17.90;99.90;;;;;;4456607;27;660188;-69
2023/08/21 03:27:19;;;;;;;26.47;16.70;;;17.90;99.90;;;;;;4439572;27;659633;-68
2023/08/21 03:30:07;;;;;;;20.83;16.57;;;17.90;99.90;;;;;;4462040;27;660695;-68
2023/08/21 03:32:55;;;;;;;23.17;17.33;;;17.90;99.90;;;;;;4437498;27;660436;-68
2023/08/21 03:35:42;;;;;;;26.70;19.00;;;17.90;99.90;;;;;;4458270;27;659721;-68
2023/08/21 03:38:31;;;;;;;28.33;19.73;;;17.90;99.90;;;;;;4461878;27;659835;-68
2023/08/21 03:41:18;;;;;;;25.80;17.90;;;17.90;99.90;;;;;;4434316;28;659878;-68
2023/08/21 03:44:05;;;;;;;23.57;17.03;;;17.90;99.90;;;;;;4457326;27;660272;-68
2023/08/21 03:46:53;;;;;;;27.37;17.33;;;17.90;99.90;;;;;;4437079;28;660132;-68
2023/08/21 03:49:40;;;;;;;22.30;16.33;;;17.90;99.90;;;;;;4454161;27;660482;-68
2023/08/21 03:52:27;;;;;;;27.70;17.70;;;17.90;99.90;;;;;;4448102;28;659918;-69
2023/08/21 03:55:16;;;;;;;23.03;15.83;;;17.90;99.90;;;;;;4453967;27;660675;-68
2023/08/21 03:58:04;;;;;;;23.47;16.10;;;17.90;99.90;;;;;;4438782;27;659872;-68
2023/08/21 04:00:51;;;;;;;29.27;17.93;;;17.90;99.90;;;;;;4464531;27;660477;-68
2023/08/21 04:03:38;;;;;;;23.63;16.40;;;17.90;99.90;;;;;;4440327;27;660302;-68
2023/08/21 04:06:25;;;;;;;26.08;18.02;;;18.00;99.90;;;;;;4459005;27;658930;-68
2023/08/21 04:09:12;;;;;;;24.57;16.77;;;18.00;99.90;;;;;;4449039;27;659719;-68
2023/08/21 04:12:01;;;;;;;28.43;16.70;;;18.00;99.90;;;;;;4459216;27;660651;-68
2023/08/21 04:14:48;;;;;;;27.90;16.77;;;18.10;99.90;;;;;;4431272;27;659807;-68
2023/08/21 04:17:35;;;;;;;29.03;16.80;;;18.10;99.90;;;;;;4459028;27;660551;-68
2023/08/21 04:20:23;;;;;;;26.07;16.43;;;18.20;99.90;;;;;;4447344;27;660640;-68
2023/08/21 04:23:10;;;;;;;22.00;16.60;;;18.20;99.90;;;;;;4456809;27;660493;-68
2023/08/21 04:26:01;;;;;;;21.93;16.10;;;18.30;99.90;;;;;;4452496;27;659910;-69
2023/08/21 04:28:50;;;;;;;23.90;16.53;;;18.30;99.90;;;;;;4442228;27;659933;-69
2023/08/21 04:31:37;;;;;;;21.33;16.43;;;18.30;99.90;;;;;;4457947;27;660092;-69
2023/08/21 04:34:24;;;;;;;24.75;16.50;;;18.40;99.90;;;;;;4462171;27;660576;-69
2023/08/21 04:37:12;;;;;;;25.10;16.30;;;18.50;99.90;;;;;;4460522;27;660507;-68
2023/08/21 04:39:59;;;;;;;23.77;16.80;;;18.50;99.90;;;;;;4436165;27;659529;-68
2023/08/21 04:42:46;;;;;;;20.63;16.03;;;18.60;99.90;;;;;;4460247;27;660427;-68
2023/08/21 04:45:37;;;;;;;21.73;16.87;;;18.70;99.90;;;;;;4441427;27;661165;-68
2023/08/21 04:48:24;;;;;;;21.97;16.83;;;18.80;99.90;;;;;;4430042;27;661376;-68
2023/08/21 04:51:11;;;;;;;24.50;18.27;;;18.90;99.90;;;;;;4452925;27;660777;-67
2023/08/21 04:53:59;;;;;;;25.30;17.30;;;19.00;99.90;;;;;;4438370;27;660130;-68
2023/08/21 04:56:47;;;;;;;28.00;17.77;;;19.00;99.90;;;;;;4458101;27;660536;-69
2023/08/21 04:59:34;;;;;;;26.87;18.53;;;19.20;99.90;;;;;;4433747;27;661201;-68
2023/08/21 05:02:22;;;;;;;24.50;17.47;;;19.40;99.90;;;;;;4456727;27;660567;-68
2023/08/21 05:05:10;;;;;;;28.13;18.30;;;19.50;99.90;;;;;;4437661;27;660584;-68
2023/08/21 05:07:57;;;;;;;20.93;16.07;;;19.70;99.90;;;;;;4457310;27;659635;-68
2023/08/21 05:10:45;;;;;;;22.10;16.63;;;19.70;99.90;;;;;;4457751;27;660286;-68
2023/08/21 05:13:32;;;;;;;24.37;16.37;;;19.70;99.90;;;;;;4460392;27;659037;-68
2023/08/21 05:16:19;;;;;;;21.33;16.47;;;19.70;99.90;;;;;;4434117;27;660876;-69
2023/08/21 05:19:08;;;;;;;22.25;16.50;;;19.90;99.90;;;;;;4460879;27;659627;-68
2023/08/21 05:21:55;;;;;;;23.20;17.60;;;20.10;99.90;;;;;;4427804;27;661461;-68
2023/08/21 05:24:42;;;;;;;25.37;16.33;;;20.30;99.90;;;;;;4448813;27;659327;-69
2023/08/21 05:27:30;;;;;;;23.07;16.03;;;20.40;99.90;;;;;;4460944;27;660370;-68
2023/08/21 05:30:17;;;;;;;21.37;16.27;;;20.60;99.90;;;;;;4450511;27;660406;-69
2023/08/21 05:33:05;;;;;;;20.83;16.00;;;20.80;99.90;;;;;;4453465;27;659396;-68
2023/08/21 05:35:54;;;;;;;20.90;14.73;;;21.00;99.90;;;;;;4456997;27;659875;-68
2023/08/21 05:38:41;;;;;;;22.50;14.83;;;21.20;99.90;;;;;;4454304;27;659834;-68
2023/08/21 05:41:28;;;;;;;18.40;14.70;;;21.50;99.90;;;;;;4430244;27;659408;-68
2023/08/21 05:44:16;;;;;;;17.90;14.33;;;21.70;99.90;;;;;;4453457;27;660534;-69
2023/08/21 05:47:03;;;;;;;18.40;13.83;;;21.80;99.90;;;;;;4435820;27;659538;-70
2023/08/21 05:49:50;;;;;;;19.37;14.67;;;22.00;99.90;;;;;;4452494;27;660380;-69
2023/08/21 05:52:39;;;;;;;17.27;13.43;;;22.20;99.90;;;;;;4433599;28;659668;-69
2023/08/21 05:55:27;;;;;;;18.13;14.13;;;22.40;99.90;;;;;;4444330;27;659848;-69
2023/08/21 05:58:15;;;;;;;21.07;14.53;;;22.60;99.90;;;;;;4415292;27;659972;-69
2023/08/21 06:01:05;;;;;;;19.53;13.57;;;22.90;99.90;;;;;;4435964;27;660234;-69
2023/08/21 06:03:59;;;;;;;19.30;13.73;;;22.90;99.90;;;;;;4430302;27;659830;-69
2023/08/21 06:06:47;;;;;;;17.83;13.70;;;23.10;99.90;;;;;;4416661;27;660367;-69
2023/08/21 06:09:38;;;;;;;19.70;14.07;;;23.00;99.90;;;;;;4407726;27;660673;-68
2023/08/21 06:12:25;;;;;;;27.10;13.53;;;23.10;99.90;;;;;;4413346;27;661536;-68
2023/08/21 06:15:13;;;;;;;18.73;13.53;;;23.20;99.90;;;;;;4433647;27;659277;-69
2023/08/21 06:18:00;;;;;;;18.75;13.98;;;23.40;99.90;;;;;;4445925;27;661503;-69
2023/08/21 06:20:48;;;;;;;21.73;13.25;;;23.50;99.90;;;;;;4422959;27;659727;-68
2023/08/21 06:23:35;;;;;;;18.47;13.43;;;23.60;99.90;;;;;;4454667;27;659698;-69
2023/08/21 06:26:24;;;;;;;23.58;13.45;;;23.40;99.90;;;;;;4445959;27;660144;-69
2023/08/21 06:29:11;;;;;;;17.65;13.75;;;23.50;99.90;;;;;;4449908;28;659933;-68
2023/08/21 06:31:58;;;;;;;22.98;13.45;;;23.50;99.90;;;;;;4436485;27;660636;-68
2023/08/21 06:34:46;;;;;;;18.67;12.77;;;23.50;99.90;;;;;;4456257;27;661030;-68
2023/08/21 06:37:33;;;;;;;17.17;13.20;;;23.60;99.90;;;;;;4434141;28;659938;-69
2023/08/21 06:40:20;;;;;;;16.63;12.63;;;23.70;99.90;;;;;;4452023;27;661214;-68
2023/08/21 06:43:09;;;;;;;18.63;13.52;;;23.70;99.90;;;;;;4438730;28;660393;-69
2023/08/21 06:45:56;;;;;;;17.90;13.50;;;23.70;99.90;;;;;;4452634;27;659262;-68
2023/08/21 06:48:43;;;;;;;18.02;13.10;;;23.80;99.90;;;;;;4432124;27;659454;-67
2023/08/21 06:51:31;;;;;;;20.08;13.95;;;23.70;99.90;;;;;;4455802;27;660902;-68
2023/08/21 06:54:18;;;;;;;17.95;13.55;;;23.60;99.90;;;;;;4432238;27;660562;-68
2023/08/21 06:57:06;;;;;;;18.33;12.48;;;23.70;99.90;;;;;;4459326;28;660200;-67
2023/08/21 06:59:54;;;;;;;19.20;12.80;;;23.60;99.90;;;;;;4429592;28;660081;-68
2023/08/21 07:02:41;;;;;;;19.25;12.52;;;23.60;99.90;;;;;;4446135;27;660310;-68
2023/08/21 07:05:29;;;;;;;20.23;13.48;;;23.70;99.90;;;;;;4431599;27;659618;-69
2023/08/21 07:08:16;;;;;;;22.08;12.57;;;23.80;99.90;;;;;;4452253;28;659671;-68
2023/08/21 07:11:04;;;;;;;15.55;12.48;;;23.90;99.90;;;;;;4445392;28;660099;-69
2023/08/21 07:13:51;;;;;;;16.35;12.75;;;24.00;99.90;;;;;;4462630;27;659974;-68
2023/08/21 07:16:40;;;;;;;16.67;12.93;;;24.10;99.90;;;;;;4432453;28;659869;-68
2023/08/21 07:19:27;;;;;;;17.50;12.90;;;24.30;99.90;;;;;;4434972;28;660377;-69
2023/08/21 07:22:15;;;;;;;15.85;12.23;;;24.20;99.90;;;;;;4457230;28;659897;-67
2023/08/21 07:25:03;;;;;;;16.80;12.32;;;24.20;99.90;;;;;;4447881;28;660455;-68
2023/08/21 07:27:52;;;;;;;16.83;13.38;;;24.40;99.90;;;;;;4456950;27;660625;-67
2023/08/21 07:30:40;;;;;;;21.13;13.65;;;24.30;99.90;;;;;;4429654;27;660687;-66
2023/08/21 07:33:29;;;;;;;25.02;14.40;;;24.60;99.90;;;;;;4432275;27;660094;-68
2023/08/21 07:36:17;;;;;;;24.05;14.35;;;25.00;99.90;;;;;;4460702;27;659550;-67
2023/08/21 07:39:05;;;;;;;23.38;15.90;;;24.80;99.90;;;;;;4437367;27;660048;-67
2023/08/21 07:41:53;;;;;;;31.42;18.20;;;24.60;99.90;;;;;;4428664;28;659623;-68
2023/08/21 07:44:40;;;;;;;35.72;20.88;;;24.70;99.90;;;;;;4477037;27;658900;-67
2023/08/21 07:47:28;;;;;;;37.97;22.73;;;24.90;99.90;;;;;;4405653;27;660940;-68
2023/08/21 07:50:17;;;;;;;39.05;21.00;;;25.10;99.90;;;;;;4449899;27;660879;-67
2023/08/21 07:53:05;;;;;;;38.72;20.23;;;25.10;99.90;;;;;;4428369;27;659914;-68
2023/08/21 07:55:52;;;;;;;38.08;20.30;;;25.30;99.90;;;;;;4452558;27;659927;-67
2023/08/21 07:58:40;;;;;;;32.45;17.95;;;25.20;99.90;;;;;;4435344;27;659419;-67
2023/08/21 08:01:27;;;;;;;34.78;17.73;;;24.70;99.90;;;;;;4450037;27;660137;-68
2023/08/21 08:04:15;;;;;;;30.58;19.05;;;24.60;99.90;;;;;;4454132;27;660348;-68
2023/08/21 08:07:04;;;;;;;32.63;18.23;;;24.70;99.90;;;;;;4443137;27;659622;-68
2023/08/21 08:09:52;;;;;;;27.90;17.63;;;24.60;99.90;;;;;;4452931;27;660026;-67
2023/08/21 08:12:43;;;;;;;34.63;18.67;;;24.60;99.90;;;;;;4429678;27;660441;-67
2023/08/21 08:15:31;;;;;;;27.63;17.00;;;23.90;99.90;;;;;;4432574;27;660727;-67
2023/08/21 08:18:18;;;;;;;26.58;17.98;;;24.10;99.90;;;;;;4430001;27;659999;-67
2023/08/21 08:21:05;;;;;;;28.27;16.85;;;24.00;99.90;;;;;;4457448;27;660621;-68
2023/08/21 08:23:54;;;;;;;29.40;17.42;;;24.10;99.90;;;;;;4434115;27;659778;-68
2023/08/21 08:26:42;;;;;;;26.27;16.83;;;24.10;99.90;;;;;;4451063;27;659763;-67
2023/08/21 08:29:30;;;;;;;28.67;17.52;;;24.10;99.90;;;;;;4429167;27;660503;-68
2023/08/21 08:32:17;;;;;;;27.40;17.90;;;24.10;99.90;;;;;;4433347;27;659877;-68
2023/08/21 08:35:05;;;;;;;25.77;16.73;;;24.10;99.90;;;;;;4458234;27;661461;-68
2023/08/21 08:37:54;;;;;;;25.67;16.90;;;24.20;99.90;;;;;;4437721;27;659560;-68
2023/08/21 08:40:45;;;;;;;34.15;19.38;;;24.30;99.90;;;;;;4448754;27;659903;-67
2023/08/21 08:43:33;;;;;;;43.50;21.77;;;24.30;99.90;;;;;;4415072;27;660677;-67
2023/08/21 08:46:20;;;;;;;58.97;32.33;;;24.40;99.90;;;;;;4457514;27;662627;-67
2023/08/21 08:49:08;;;;;;;65.05;33.90;;;24.60;99.90;;;;;;4437182;27;660224;-68
2023/08/21 08:51:55;;;;;;;55.70;24.08;;;24.60;99.90;;;;;;4456183;27;660799;-68
2023/08/21 08:54:43;;;;;;;31.70;18.70;;;24.60;99.90;;;;;;4444049;27;659919;-68
2023/08/21 08:57:31;;;;;;;32.95;19.60;;;24.70;99.90;;;;;;4453558;27;660703;-68
2023/08/21 09:00:19;;;;;;;43.85;23.90;;;24.80;99.90;;;;;;4433249;27;659958;-67
2023/08/21 09:03:06;;;;;;;42.30;24.17;;;24.90;99.90;;;;;;4448335;27;660413;-68
2023/08/21 09:05:54;;;;;;;77.93;36.45;;;25.10;99.90;;;;;;4437308;27;659727;-69
2023/08/21 09:08:43;;;;;;;32.40;19.95;;;25.50;99.90;;;;;;4443547;27;659817;-68
2023/08/21 09:11:31;;;;;;;37.93;20.10;;;25.70;99.90;;;;;;4428579;27;660444;-67
2023/08/21 09:14:23;;;;;;;37.47;22.23;;;26.10;99.90;;;;;;4438240;27;660068;-67
2023/08/21 09:17:11;;;;;;;21.65;14.23;;;26.60;99.90;;;;;;4436855;27;660097;-67
2023/08/21 09:20:04;;;;;;;22.55;14.18;;;27.00;99.90;;;;;;4433429;27;659634;-68
2023/08/21 09:22:54;;;;;;;23.13;15.18;;;27.30;99.90;;;;;;4432779;27;660422;-67
2023/08/21 09:25:43;;;;;;;25.40;14.35;;;27.50;99.90;;;;;;4428993;27;659604;-67
2023/08/21 09:28:30;;;;;;;23.38;14.43;;;27.80;99.90;;;;;;4427698;27;660766;-67
2023/08/21 09:31:22;;;;;;;25.08;15.52;;;28.10;99.90;;;;;;4438904;27;659968;-68
2023/08/21 09:34:09;;;;;;;24.92;14.82;;;27.60;99.90;;;;;;4427054;27;660522;-67
2023/08/21 09:36:56;;;;;;;21.15;14.50;;;27.90;99.90;;;;;;4447329;28;659566;-67
2023/08/21 09:39:44;;;;;;;21.07;13.87;;;28.10;99.90;;;;;;4430677;27;660490;-67
2023/08/21 09:42:32;;;;;;;22.33;14.63;;;28.50;99.90;;;;;;4457171;27;659866;-67
2023/08/21 09:45:21;;;;;;;30.55;15.63;;;28.40;99.90;;;;;;4432777;27;660029;-67
2023/08/21 09:48:10;;;;;;;22.52;15.30;;;28.40;99.90;;;;;;4432296;27;660159;-67
2023/08/21 09:50:59;;;;;;;29.65;15.05;;;28.50;99.90;;;;;;4434301;28;659917;-67
2023/08/21 09:53:46;;;;;;;21.92;14.05;;;28.70;99.90;;;;;;4449234;27;660691;-67
2023/08/21 09:56:34;;;;;;;21.13;14.82;;;29.40;99.90;;;;;;4430058;27;659701;-67
2023/08/21 09:59:21;;;;;;;19.50;14.65;;;29.60;99.90;;;;;;4456805;27;660560;-68
2023/08/21 10:02:09;;;;;;;22.20;13.45;;;30.00;99.90;;;;;;4428614;27;659839;-67
2023/08/21 10:04:58;;;;;;;22.38;14.02;;;30.50;99.90;;;;;;4453642;28;659955;-66
2023/08/21 10:07:45;;;;;;;17.65;12.73;;;30.70;99.90;;;;;;4428367;27;660324;-67
2023/08/21 10:10:33;;;;;;;16.38;12.13;;;30.90;99.90;;;;;;4436899;27;659477;-68
2023/08/21 10:13:21;;;;;;;21.70;13.00;;;30.80;99.90;;;;;;4453177;27;660551;-68
2023/08/21 10:16:08;;;;;;;14.90;11.63;;;30.80;99.90;;;;;;4431835;28;660060;-67
2023/08/21 10:18:55;;;;;;;15.05;11.25;;;30.70;99.90;;;;;;4459308;28;660570;-67
2023/08/21 10:21:47;;;;;;;15.70;11.65;;;30.20;99.90;;;;;;4435254;28;660133;-68
2023/08/21 10:24:41;;;;;;;22.73;14.40;;;30.20;99.90;;;;;;4425199;27;659970;-66
2023/08/21 10:27:30;;;;;;;23.52;14.35;;;30.40;99.90;;;;;;4415313;27;660718;-67
2023/08/21 10:30:21;;;;;;;23.25;14.60;;;30.80;99.90;;;;;;4435779;27;659687;-67
2023/08/21 10:33:08;;;;;;;21.50;14.50;;;31.20;99.90;;;;;;4434796;27;659901;-67
2023/08/21 10:35:56;;;;;;;20.48;14.25;;;31.60;99.90;;;;;;4454282;28;660492;-66
2023/08/21 10:39:04;;;;;;;20.95;13.30;;;31.90;99.90;;;;;;4436214;27;660446;-67
2023/08/21 10:41:55;;;;;;;21.48;13.55;;;32.10;99.90;;;;;;4429067;28;660830;-67
2023/08/21 10:44:55;;;;;;;22.02;14.07;;;32.60;99.90;;;;;;4412492;28;660164;-68
2023/08/21 10:47:42;;;;;;;20.25;13.88;;;32.50;99.90;;;;;;4430259;28;659427;-67
2023/08/21 10:50:30;;;;;;;22.33;15.10;;;32.30;99.50;;;;;;4450844;27;660283;-67
2023/08/21 10:53:18;;;;;;;20.98;14.50;;;32.20;99.30;;;;;;4430370;27;659767;-68
2023/08/21 10:56:07;;;;;;;22.58;14.73;;;31.70;97.60;;;;;;4456565;27;660182;-66
2023/08/21 10:58:54;;;;;;;18.55;14.40;;;31.70;99.90;;;;;;4414512;28;660003;-66
2023/08/21 11:01:45;;;;;;;20.42;13.73;;;31.60;99.90;;;;;;4446069;27;659411;-66
2023/08/21 11:04:41;;;;;;;20.15;14.18;;;32.00;99.90;;;;;;4411629;27;659872;-68
2023/08/21 11:07:28;;;;;;;19.10;14.20;;;32.30;99.90;;;;;;4435457;27;659999;-66
2023/08/21 11:10:18;;;;;;;22.83;14.00;;;31.30;99.90;;;;;;4462766;27;660548;-66
2023/08/21 11:13:07;;;;;;;20.33;13.80;;;31.60;99.90;;;;;;4428541;27;659875;-66
2023/08/21 11:16:04;;;;;;;22.80;14.48;;;31.30;99.90;;;;;;4432299;27;660452;-67
2023/08/21 11:18:53;;;;;;;22.60;14.87;;;30.90;99.90;;;;;;4433530;27;660026;-67
2023/08/21 11:21:44;;;;;;;23.70;14.13;;;30.70;99.90;;;;;;4432934;27;660815;-67
2023/08/21 11:24:32;;;;;;;20.02;14.10;;;30.60;99.90;;;;;;4435900;27;659763;-67
2023/08/21 11:27:19;;;;;;;21.98;14.18;;;30.80;99.90;;;;;;4425034;27;660590;-66
2023/08/21 11:30:11;;;;;;;16.50;13.38;;;30.50;99.90;;;;;;4456902;27;659904;-66
2023/08/21 11:33:08;;;;;;;17.92;13.43;;;30.30;99.90;;;;;;4440742;27;659576;-66
2023/08/21 11:35:57;;;;;;;20.02;13.80;;;30.30;99.90;;;;;;4437426;27;659823;-68
2023/08/21 11:38:44;;;;;;;18.27;12.73;;;29.80;99.90;;;;;;4433130;27;659647;-67
2023/08/21 11:41:31;;;;;;;17.60;13.02;;;29.60;99.90;;;;;;4451517;27;660214;-66
2023/08/21 11:44:18;;;;;;;20.33;13.40;;;28.70;99.90;;;;;;4436774;27;660172;-66
2023/08/21 11:47:07;;;;;;;20.83;14.07;;;28.80;99.90;;;;;;4454292;27;661073;-66
2023/08/21 11:49:54;;;;;;;20.10;14.05;;;28.70;99.90;;;;;;4435644;27;660293;-67
2023/08/21 11:52:42;;;;;;;21.60;13.40;;;28.60;99.90;;;;;;4455186;27;660523;-66
2023/08/21 11:55:29;;;;;;;22.83;13.48;;;28.50;99.90;;;;;;4433811;27;660432;-66
2023/08/21 11:58:18;;;;;;;17.30;13.23;;;28.40;99.90;;;;;;4455975;27;659823;-66
2023/08/21 12:01:08;;;;;;;18.17;12.97;;;28.30;99.90;;;;;;4434810;28;659862;-66
2023/08/21 12:03:56;;;;;;;17.83;13.60;;;28.40;99.90;;;;;;4427985;27;661641;-67
2023/08/21 12:06:45;;;;;;;19.10;13.43;;;28.30;99.90;;;;;;4434904;27;659793;-66
2023/08/21 12:09:33;;;;;;;19.55;13.80;;;28.10;99.90;;;;;;4447292;27;659742;-67
2023/08/21 12:12:20;;;;;;;17.55;14.25;;;27.80;99.90;;;;;;4458664;27;660139;-66
2023/08/21 12:15:08;;;;;;;23.40;15.27;;;27.60;99.90;;;;;;4442521;27;660138;-68
2023/08/21 12:17:56;;;;;;;18.58;13.35;;;27.80;99.90;;;;;;4456957;27;660141;-66
2023/08/21 12:20:44;;;;;;;20.83;14.25;;;28.00;99.90;;;;;;4433184;27;659355;-67
2023/08/21 12:23:31;;;;;;;22.77;14.93;;;28.10;99.90;;;;;;4451026;27;660257;-66
2023/08/21 12:26:20;;;;;;;20.08;14.07;;;28.10;99.90;;;;;;4437908;27;660445;-66
2023/08/21 12:29:08;;;;;;;17.42;14.00;;;28.50;99.90;;;;;;4432841;27;660538;-68
2023/08/21 12:31:55;;;;;;;24.38;14.50;;;28.90;99.90;;;;;;4452369;27;660963;-67
2023/08/21 12:34:42;;;;;;;22.27;15.77;;;29.10;99.90;;;;;;4448986;27;659709;-67
2023/08/21 12:37:31;;;;;;;20.33;15.45;;;29.40;99.90;;;;;;4458919;27;659326;-67
2023/08/21 12:40:18;;;;;;;23.17;15.25;;;29.70;99.90;;;;;;4434418;27;659605;-67
2023/08/21 12:43:06;;;;;;;28.92;15.70;;;30.30;99.90;;;;;;4449575;27;662474;-67
2023/08/21 12:45:53;;;;;;;22.27;14.93;;;30.00;99.90;;;;;;4442140;27;659822;-66
2023/08/21 12:48:40;;;;;;;22.42;14.68;;;29.70;99.90;;;;;;4453952;27;661272;-65
2023/08/21 12:51:28;;;;;;;25.23;14.32;;;30.20;99.90;;;;;;4446911;27;659863;-68
2023/08/21 12:54:17;;;;;;;25.73;13.73;;;30.50;99.90;;;;;;4456885;27;660239;-67
2023/08/21 12:57:05;;;;;;;19.40;14.13;;;30.70;99.90;;;;;;4430384;27;659951;-68
2023/08/21 12:59:53;;;;;;;22.08;13.02;;;30.60;99.90;;;;;;4441944;27;659483;-68
2023/08/21 13:02:41;;;;;;;18.90;12.88;;;30.50;99.90;;;;;;4452380;27;660419;-66
2023/08/21 13:05:28;;;;;;;17.40;13.52;;;30.60;99.90;;;;;;4430263;27;660430;-68
2023/08/21 13:08:15;;;;;;;20.60;13.50;;;30.40;99.90;;;;;;4455605;27;660243;-68
2023/08/21 13:11:05;;;;;;;24.92;13.32;;;30.30;99.90;;;;;;4430424;27;660062;-67
2023/08/21 13:13:53;;;;;;;17.10;12.80;;;30.30;99.90;;;;;;4436261;27;659528;-68
2023/08/21 13:16:40;;;;;;;23.42;14.57;;;30.60;99.90;;;;;;4457475;28;661231;-67
2023/08/21 13:19:27;;;;;;;21.55;14.48;;;31.00;99.90;;;;;;4451083;27;660401;-68
2023/08/21 13:22:17;;;;;;;26.52;15.27;;;30.60;99.90;;;;;;4455250;27;660238;-68
2023/08/21 13:25:05;;;;;;;21.05;15.57;;;30.70;99.40;;;;;;4430435;27;660588;-67
2023/08/21 13:27:54;;;;;;;23.27;15.13;;;30.70;97.00;;;;;;4449981;27;659825;-67
2023/08/21 13:30:42;;;;;;;22.73;14.43;;;30.80;99.90;;;;;;4452225;27;659635;-67
2023/08/21 13:33:30;;;;;;;25.23;15.27;;;30.90;99.90;;;;;;4435092;27;659746;-67
2023/08/21 13:36:20;;;;;;;20.10;14.30;;;31.10;99.90;;;;;;4439447;27;660555;-68
2023/08/21 13:39:10;;;;;;;24.17;14.73;;;31.20;97.30;;;;;;4446583;27;659442;-68
2023/08/21 13:41:57;;;;;;;20.17;13.30;;;31.20;96.30;;;;;;4445524;27;659840;-68
2023/08/21 13:44:46;;;;;;;22.42;14.55;;;30.90;97.50;;;;;;4447263;27;660185;-67
2023/08/21 13:47:33;;;;;;;20.48;13.90;;;30.80;99.70;;;;;;4432088;27;659945;-68
2023/08/21 13:50:21;;;;;;;20.38;13.60;;;31.50;99.90;;;;;;4455137;27;660745;-67
2023/08/21 13:53:08;;;;;;;22.33;14.80;;;31.70;98.10;;;;;;4431882;27;659651;-67
2023/08/21 13:55:55;;;;;;;19.40;12.88;;;32.60;95.40;;;;;;4450253;27;660362;-66
2023/08/21 13:58:43;;;;;;;19.75;13.20;;;32.80;91.20;;;;;;4432013;28;660670;-67
2023/08/21 14:01:31;;;;;;;19.67;12.82;;;32.50;85.00;;;;;;4454003;27;661047;-68